Time;durP1;ratioP1;P1;durP2;ratioP2;P2;SDS_P1;SDS_P2;PMS_P1;PMS_P2;Temp;Humidity;BMP_temperature;BMP_pressure;BME280_temperature;BME280_humidity;BME280_pressure;Samples;Min_cycle;Max_cycle;Signal;HPM_P1;HPM_P2
2024/03/12 00:00:59;;;;;;;203.02;190.63;;;11.50;99.90;;;;;;5036807;28;20037;-76
2024/03/12 00:03:28;;;;;;;221.27;207.80;;;11.50;99.90;;;;;;5053095;28;20021;-76
2024/03/12 00:05:59;;;;;;;237.70;223.38;;;11.50;99.90;;;;;;5051591;28;20044;-76
2024/03/12 00:08:27;;;;;;;209.98;196.85;;;11.40;99.90;;;;;;5044398;28;20049;-76
2024/03/12 00:10:57;;;;;;;216.70;203.30;;;11.40;99.90;;;;;;5043568;28;20029;-77
2024/03/12 00:13:23;;;;;;;240.45;225.88;;;11.40;99.90;;;;;;5030834;28;20046;-76
2024/03/12 00:15:49;;;;;;;208.65;196.10;;;11.40;99.90;;;;;;5031796;28;20049;-76
2024/03/12 00:18:16;;;;;;;194.25;182.57;;;11.40;99.90;;;;;;5038163;28;20403;-76
2024/03/12 00:20:43;;;;;;;191.55;179.68;;;11.30;99.90;;;;;;5048282;28;20045;-76
2024/03/12 00:23:09;;;;;;;202.40;189.95;;;11.30;99.90;;;;;;5032234;28;20404;-76
2024/03/12 00:25:36;;;;;;;192.43;180.95;;;11.20;99.90;;;;;;5044215;28;20040;-76
2024/03/12 00:28:05;;;;;;;197.02;184.77;;;11.20;99.90;;;;;;5048521;28;20045;-76
2024/03/12 00:30:31;;;;;;;201.85;189.90;;;11.10;99.90;;;;;;5035001;28;20037;-77
2024/03/12 00:32:57;;;;;;;188.43;175.98;;;11.10;99.90;;;;;;5052273;28;20048;-76
2024/03/12 00:35:28;;;;;;;194.40;182.18;;;11.10;99.90;;;;;;5051711;28;20055;-76
2024/03/12 00:37:56;;;;;;;186.63;175.25;;;11.10;99.90;;;;;;5049905;28;20037;-76
2024/03/12 00:40:26;;;;;;;179.85;168.75;;;11.00;99.90;;;;;;5051690;28;20029;-77
2024/03/12 00:42:52;;;;;;;177.88;166.88;;;11.10;99.90;;;;;;5051938;28;20052;-76
2024/03/12 00:45:25;;;;;;;179.02;167.75;;;11.00;99.90;;;;;;5051614;28;20025;-76
2024/03/12 00:47:52;;;;;;;187.77;176.18;;;10.90;99.90;;;;;;5050433;28;20013;-77
2024/03/12 00:50:20;;;;;;;178.48;167.00;;;10.90;99.90;;;;;;5031600;28;20400;-76
2024/03/12 00:52:46;;;;;;;189.40;177.57;;;10.80;99.90;;;;;;5052233;28;20037;-76
2024/03/12 00:55:16;;;;;;;198.60;186.20;;;10.70;99.90;;;;;;5051587;28;20028;-76
2024/03/12 00:57:43;;;;;;;192.82;180.85;;;10.80;99.90;;;;;;5051558;28;20048;-76
2024/03/12 01:00:25;;;;;;;198.13;185.93;;;10.70;99.90;;;;;;5047052;28;20038;-76
2024/03/12 01:02:53;;;;;;;167.45;156.68;;;10.80;99.90;;;;;;5032167;28;20041;-76
2024/03/12 01:05:26;;;;;;;175.95;164.52;;;10.70;99.90;;;;;;5031632;28;20048;-75
2024/03/12 01:07:58;;;;;;;150.40;140.68;;;10.70;99.90;;;;;;5050420;28;20049;-75
2024/03/12 01:10:26;;;;;;;170.77;159.00;;;10.60;99.90;;;;;;5043487;28;20025;-75
2024/03/12 01:12:53;;;;;;;170.18;159.75;;;10.60;99.90;;;;;;5034556;28;20064;-75
2024/03/12 01:15:20;;;;;;;153.73;143.38;;;10.60;99.90;;;;;;5035179;28;20038;-75
2024/03/12 01:17:50;;;;;;;155.25;145.27;;;10.60;99.90;;;;;;5036186;28;20033;-76
2024/03/12 01:20:17;;;;;;;152.68;143.55;;;10.60;99.90;;;;;;5038370;28;20473;-75
2024/03/12 01:22:43;;;;;;;197.80;185.75;;;10.70;99.90;;;;;;5039481;28;20029;-75
2024/03/12 01:25:10;;;;;;;175.85;165.32;;;10.70;99.90;;;;;;5043750;28;20040;-75
2024/03/12 01:27:36;;;;;;;181.65;170.35;;;10.60;99.90;;;;;;5036143;28;20026;-75
2024/03/12 01:30:06;;;;;;;188.90;177.13;;;10.60;99.90;;;;;;5036215;28;20036;-74
2024/03/12 01:32:36;;;;;;;194.00;182.18;;;10.60;99.90;;;;;;5055380;28;20028;-75
2024/03/12 01:35:08;;;;;;;159.05;149.38;;;10.60;99.90;;;;;;5055681;28;20049;-75
2024/03/12 01:37:41;;;;;;;144.60;135.75;;;10.50;99.90;;;;;;5054114;28;20041;-75
2024/03/12 01:40:25;;;;;;;139.88;131.07;;;10.60;99.90;;;;;;5035995;28;20403;-74
2024/03/12 01:42:53;;;;;;;151.60;141.98;;;10.50;99.90;;;;;;5035126;28;20387;-74
2024/03/12 01:45:25;;;;;;;161.15;151.45;;;10.50;99.90;;;;;;5036346;28;20057;-74
2024/03/12 01:47:52;;;;;;;158.35;148.57;;;10.50;99.90;;;;;;5055609;28;20033;-75
2024/03/12 01:50:21;;;;;;;148.77;139.52;;;10.50;99.90;;;;;;5053692;28;20063;-74
2024/03/12 01:52:50;;;;;;;142.30;133.45;;;10.50;99.90;;;;;;5055380;28;20048;-75
2024/03/12 01:55:18;;;;;;;149.63;140.43;;;10.50;99.90;;;;;;5048895;28;20415;-75
2024/03/12 01:57:47;;;;;;;148.15;138.50;;;10.50;99.90;;;;;;5043781;28;20036;-75
2024/03/12 02:00:14;;;;;;;176.30;165.57;;;10.40;99.90;;;;;;5034817;28;20060;-74
2024/03/12 02:02:41;;;;;;;183.20;171.68;;;10.50;99.90;;;;;;5054123;28;20041;-74
2024/03/12 02:05:11;;;;;;;193.70;181.50;;;10.50;99.90;;;;;;5045830;28;20045;-75
2024/03/12 02:07:39;;;;;;;203.50;190.02;;;10.50;99.90;;;;;;5054847;28;20033;-74
2024/03/12 02:10:07;;;;;;;199.25;185.95;;;10.50;99.90;;;;;;5047548;28;20052;-76
2024/03/12 02:12:33;;;;;;;221.27;206.93;;;10.50;99.90;;;;;;5033910;28;20052;-76
2024/03/12 02:15:03;;;;;;;202.60;189.18;;;10.30;99.90;;;;;;5035194;28;20399;-76
2024/03/12 02:17:30;;;;;;;193.60;180.88;;;10.30;99.90;;;;;;5033967;28;20038;-76
2024/03/12 02:19:59;;;;;;;227.73;212.65;;;10.30;99.90;;;;;;5033439;28;20045;-77
2024/03/12 02:22:27;;;;;;;198.73;185.68;;;10.40;99.90;;;;;;5053169;28;20036;-76
2024/03/12 02:24:53;;;;;;;205.07;191.25;;;10.40;99.90;;;;;;5053882;28;20380;-76
2024/03/12 02:27:19;;;;;;;216.20;202.00;;;10.40;99.90;;;;;;5054646;28;20032;-75
2024/03/12 02:29:45;;;;;;;167.40;157.15;;;10.40;99.90;;;;;;5052907;28;20041;-76
2024/03/12 02:32:12;;;;;;;198.05;185.10;;;10.30;99.90;;;;;;5053785;28;20033;-76
2024/03/12 02:34:38;;;;;;;219.40;204.90;;;10.30;99.90;;;;;;5054563;28;20045;-76
2024/03/12 02:37:05;;;;;;;225.55;210.55;;;10.30;99.90;;;;;;5054150;28;20403;-76
2024/03/12 02:39:31;;;;;;;191.57;178.65;;;10.30;99.90;;;;;;5043849;28;20064;-76
2024/03/12 02:41:58;;;;;;;224.50;209.70;;;10.30;99.90;;;;;;5035161;28;20044;-76
2024/03/12 02:44:24;;;;;;;200.15;186.70;;;10.30;99.90;;;;;;5034627;28;20049;-76
2024/03/12 02:46:52;;;;;;;190.68;178.57;;;10.40;99.90;;;;;;5047935;28;20033;-76
2024/03/12 02:49:19;;;;;;;195.07;182.68;;;10.40;99.90;;;;;;5045610;28;20030;-76
2024/03/12 02:51:46;;;;;;;196.15;183.73;;;10.30;99.90;;;;;;5045711;28;20388;-76
2024/03/12 02:54:13;;;;;;;195.38;182.75;;;10.30;99.90;;;;;;5054175;28;20515;-76
2024/03/12 02:56:39;;;;;;;182.18;170.82;;;10.30;99.90;;;;;;5053862;28;20044;-76
2024/03/12 02:59:05;;;;;;;183.52;171.77;;;10.30;99.90;;;;;;5047446;28;20029;-76
2024/03/12 03:01:31;;;;;;;195.43;182.77;;;10.30;99.90;;;;;;5043955;28;20522;-76
2024/03/12 03:03:57;;;;;;;206.65;193.65;;;10.40;99.90;;;;;;5045287;28;20037;-76
2024/03/12 03:06:24;;;;;;;210.57;197.07;;;10.40;99.90;;;;;;5041603;28;20384;-76
2024/03/12 03:08:51;;;;;;;188.63;176.70;;;10.30;99.90;;;;;;5041729;28;20103;-76
2024/03/12 03:11:17;;;;;;;192.55;180.38;;;10.30;99.90;;;;;;5052548;28;20047;-76
2024/03/12 03:13:43;;;;;;;201.43;188.85;;;10.30;99.90;;;;;;5052988;28;20033;-76
2024/03/12 03:16:09;;;;;;;175.25;164.40;;;10.30;99.90;;;;;;5040306;28;20435;-76
2024/03/12 03:18:35;;;;;;;201.52;189.30;;;10.30;99.90;;;;;;5050835;28;20024;-76
2024/03/12 03:21:02;;;;;;;192.45;180.45;;;10.30;99.90;;;;;;5039325;28;20037;-76
2024/03/12 03:23:28;;;;;;;206.98;194.10;;;10.30;99.90;;;;;;5042537;28;20040;-75
2024/03/12 03:25:54;;;;;;;201.73;189.27;;;10.30;99.90;;;;;;5038193;28;20033;-76
2024/03/12 03:28:20;;;;;;;201.50;189.35;;;10.30;99.90;;;;;;5041258;28;20041;-76
2024/03/12 03:30:46;;;;;;;168.55;158.35;;;10.30;99.90;;;;;;5031619;28;20033;-76
2024/03/12 03:33:14;;;;;;;191.30;179.55;;;10.20;99.90;;;;;;5032178;28;20404;-76
2024/03/12 03:35:40;;;;;;;180.95;170.13;;;10.20;99.90;;;;;;5034985;28;20053;-76
2024/03/12 03:38:08;;;;;;;186.75;175.18;;;10.30;99.90;;;;;;5043570;28;20055;-77
2024/03/12 03:40:34;;;;;;;179.82;168.93;;;10.30;99.90;;;;;;5053181;28;20041;-76
2024/03/12 03:43:00;;;;;;;164.07;153.82;;;10.20;99.90;;;;;;5053315;28;20052;-76
2024/03/12 03:45:27;;;;;;;187.68;175.82;;;10.20;99.90;;;;;;5052686;28;20032;-76
2024/03/12 03:47:53;;;;;;;181.07;169.80;;;10.20;99.90;;;;;;5047146;28;20037;-76
2024/03/12 03:50:19;;;;;;;182.15;170.75;;;10.20;99.90;;;;;;5034106;28;20041;-76
2024/03/12 03:52:46;;;;;;;131.80;123.80;;;10.20;99.90;;;;;;5053457;28;20044;-76
2024/03/12 03:55:14;;;;;;;154.45;144.90;;;10.20;99.90;;;;;;5052971;28;20081;-76
2024/03/12 03:57:40;;;;;;;138.93;130.13;;;10.10;99.90;;;;;;5049000;28;20032;-76
2024/03/12 04:00:12;;;;;;;139.45;131.02;;;10.10;99.90;;;;;;5042824;28;20041;-76
2024/03/12 04:02:39;;;;;;;154.25;144.63;;;10.10;99.90;;;;;;5053002;28;20032;-76
2024/03/12 04:05:07;;;;;;;157.55;147.45;;;10.10;99.90;;;;;;5053048;28;20044;-76
2024/03/12 04:07:33;;;;;;;146.45;137.52;;;10.10;99.90;;;;;;5032000;28;20033;-76
2024/03/12 04:09:59;;;;;;;169.07;158.52;;;10.10;99.90;;;;;;5043370;28;20039;-76
2024/03/12 04:12:25;;;;;;;153.77;144.25;;;10.10;99.90;;;;;;5032813;28;20029;-76
2024/03/12 04:14:51;;;;;;;155.75;146.13;;;10.10;99.90;;;;;;5033027;28;20037;-76
2024/03/12 04:17:19;;;;;;;143.02;134.18;;;10.10;99.90;;;;;;5032161;28;20052;-76
2024/03/12 04:19:47;;;;;;;138.10;129.38;;;10.10;99.90;;;;;;5032920;28;20025;-76
2024/03/12 04:22:16;;;;;;;145.82;136.60;;;10.20;99.90;;;;;;5045713;28;20041;-76
2024/03/12 04:24:44;;;;;;;131.43;122.97;;;10.10;99.90;;;;;;5037611;28;20044;-75
2024/03/12 04:27:13;;;;;;;138.25;129.82;;;10.20;99.90;;;;;;5052634;28;20494;-76
2024/03/12 04:29:40;;;;;;;125.97;118.15;;;10.20;99.90;;;;;;5052157;28;20049;-76
2024/03/12 04:32:06;;;;;;;145.55;136.43;;;10.10;99.90;;;;;;5045009;28;20030;-76
2024/03/12 04:34:33;;;;;;;125.75;117.20;;;10.10;99.90;;;;;;5031319;28;20037;-75
2024/03/12 04:37:00;;;;;;;132.13;123.63;;;10.20;99.90;;;;;;5047277;28;20048;-76
2024/03/12 04:39:33;;;;;;;129.57;120.97;;;10.20;99.90;;;;;;5052669;28;20021;-76
2024/03/12 04:42:05;;;;;;;142.15;133.25;;;10.20;99.90;;;;;;5052014;28;20040;-75
2024/03/12 04:44:32;;;;;;;135.13;126.32;;;10.10;99.90;;;;;;5044969;28;20037;-76
2024/03/12 04:46:58;;;;;;;281.77;264.10;;;10.20;99.90;;;;;;5045550;28;20041;-76
2024/03/12 04:49:25;;;;;;;140.10;131.10;;;10.20;99.90;;;;;;5052488;28;20048;-75
2024/03/12 04:51:52;;;;;;;134.90;126.25;;;10.20;99.90;;;;;;5052169;28;20041;-76
2024/03/12 04:54:18;;;;;;;146.68;137.23;;;10.20;99.90;;;;;;5050418;28;20044;-76
2024/03/12 04:56:48;;;;;;;144.70;135.55;;;10.20;99.90;;;;;;5038310;28;20034;-76
2024/03/12 04:59:17;;;;;;;135.93;127.25;;;10.20;99.90;;;;;;5047145;28;20041;-76
2024/03/12 05:01:48;;;;;;;181.80;169.80;;;10.20;99.90;;;;;;5042874;28;20045;-76
2024/03/12 05:04:14;;;;;;;;;;;10.20;99.90;;;;;;5038336;28;20037;-76
2024/03/12 05:06:40;;;;;;;109.82;102.80;;;10.20;99.90;;;;;;5044320;28;19909;-74
2024/03/12 05:09:06;;;;;;;119.53;111.97;;;10.20;99.90;;;;;;5052016;28;20514;-75
2024/03/12 05:11:33;;;;;;;128.35;119.93;;;10.20;99.90;;;;;;5040570;28;20392;-75
2024/03/12 05:13:59;;;;;;;141.65;132.65;;;10.20;99.90;;;;;;5032132;28;20037;-75
2024/03/12 05:16:26;;;;;;;168.95;158.20;;;10.20;99.90;;;;;;5041640;28;20060;-74
2024/03/12 05:18:53;;;;;;;177.57;166.30;;;10.20;99.90;;;;;;5052015;28;20041;-75
2024/03/12 05:21:21;;;;;;;139.20;130.55;;;10.20;99.90;;;;;;5041896;28;20399;-74
2024/03/12 05:23:50;;;;;;;163.27;151.63;;;10.20;99.90;;;;;;5032100;28;20038;-75
2024/03/12 05:26:26;;;;;;;128.98;120.70;;;10.30;99.90;;;;;;5039002;28;20021;-74
2024/03/12 05:28:54;;;;;;;412.00;149.75;;;10.30;99.90;;;;;;5043758;28;20379;-75
2024/03/12 05:31:38;;;;;;;114.70;107.47;;;10.30;99.90;;;;;;5043417;28;20048;-74
2024/03/12 05:34:14;;;;;;;170.68;159.15;;;10.30;99.90;;;;;;5051954;28;20048;-74
2024/03/12 05:36:48;;;;;;;182.48;159.73;;;10.20;99.90;;;;;;5041829;28;20033;-74
2024/03/12 05:39:36;;;;;;;173.05;162.88;;;10.20;99.90;;;;;;5051958;28;20041;-74
2024/03/12 05:50:16;;;;;;;174.45;163.85;;;10.10;99.90;;;;;;5057460;28;20483;-75
2024/03/12 05:52:46;;;;;;;155.05;145.52;;;10.10;99.90;;;;;;5049370;28;20048;-75
2024/03/12 05:55:15;;;;;;;132.18;124.22;;;10.10;99.90;;;;;;5038227;28;20505;-75
2024/03/12 05:57:43;;;;;;;127.13;119.13;;;10.10;99.90;;;;;;5051334;28;20498;-76
2024/03/12 06:00:11;;;;;;;134.57;125.82;;;10.20;99.90;;;;;;5053323;28;20415;-74
2024/03/12 06:02:38;;;;;;;154.57;144.80;;;10.10;99.90;;;;;;5055130;28;20380;-75
2024/03/12 06:05:06;;;;;;;202.45;189.20;;;10.10;99.90;;;;;;5055428;28;20036;-75
2024/03/12 06:07:33;;;;;;;204.73;191.32;;;10.00;99.90;;;;;;5050076;28;20503;-75
2024/03/12 06:09:59;;;;;;;201.40;188.18;;;10.10;99.90;;;;;;5054789;28;20404;-76
2024/03/12 06:12:25;;;;;;;216.13;201.10;;;10.00;99.90;;;;;;5053988;28;20029;-76
2024/03/12 06:14:51;;;;;;;213.20;199.55;;;10.10;99.90;;;;;;5054786;28;20033;-75
2024/03/12 06:17:17;;;;;;;235.32;218.90;;;10.00;99.90;;;;;;5054677;28;20048;-76
2024/03/12 06:19:43;;;;;;;226.93;211.68;;;10.10;99.90;;;;;;5055079;28;20032;-75
2024/03/12 06:22:09;;;;;;;252.98;229.10;;;10.10;99.90;;;;;;5054903;28;20029;-76
2024/03/12 06:24:36;;;;;;;247.65;231.38;;;10.10;99.90;;;;;;5054248;28;20025;-75
2024/03/12 06:27:02;;;;;;;238.90;222.50;;;10.10;99.90;;;;;;5054561;28;20388;-75
2024/03/12 06:29:28;;;;;;;223.38;208.35;;;10.10;99.90;;;;;;5054342;28;20037;-78
2024/03/12 06:31:54;;;;;;;224.05;208.32;;;10.20;99.90;;;;;;5054393;28;20048;-76
2024/03/12 06:34:21;;;;;;;220.50;205.23;;;10.10;99.90;;;;;;5036568;28;20428;-76
2024/03/12 06:36:49;;;;;;;225.45;210.45;;;10.20;99.90;;;;;;5034762;28;20044;-75
2024/03/12 06:39:17;;;;;;;214.05;200.07;;;10.20;99.90;;;;;;5034358;28;20029;-75
2024/03/12 06:41:46;;;;;;;223.05;208.52;;;10.10;99.90;;;;;;5046382;28;20045;-76
2024/03/12 06:44:15;;;;;;;233.68;218.07;;;10.20;99.90;;;;;;5054063;28;20487;-75
2024/03/12 06:46:44;;;;;;;206.30;192.65;;;10.20;99.90;;;;;;5053916;28;20033;-75
2024/03/12 06:49:12;;;;;;;203.63;190.40;;;10.20;99.90;;;;;;5054556;28;20045;-75
2024/03/12 06:51:38;;;;;;;200.70;187.50;;;10.20;99.90;;;;;;5052947;28;20507;-75
2024/03/12 06:54:04;;;;;;;225.27;210.35;;;10.30;99.90;;;;;;5046601;28;20037;-75
2024/03/12 06:56:31;;;;;;;209.93;195.63;;;10.30;99.90;;;;;;5034343;28;20037;-75
2024/03/12 06:58:58;;;;;;;198.85;185.15;;;10.30;99.90;;;;;;5034047;28;20026;-75
2024/03/12 07:01:27;;;;;;;224.50;209.70;;;10.30;99.90;;;;;;5034035;28;20049;-74
2024/03/12 07:03:57;;;;;;;211.50;197.50;;;10.30;99.90;;;;;;5034401;28;20030;-75
2024/03/12 07:06:24;;;;;;;191.30;179.00;;;10.40;99.90;;;;;;5039966;28;20033;-75
2024/03/12 07:08:50;;;;;;;207.00;193.75;;;10.30;99.90;;;;;;5052238;28;20045;-75
2024/03/12 07:11:19;;;;;;;179.80;167.88;;;10.40;99.90;;;;;;5049105;28;20044;-76
2024/03/12 07:13:48;;;;;;;178.02;166.20;;;10.40;99.90;;;;;;5053939;28;20045;-78
2024/03/12 07:16:14;;;;;;;217.00;202.57;;;10.40;99.90;;;;;;5049768;28;20064;-76
2024/03/12 07:18:40;;;;;;;190.80;178.18;;;10.50;99.90;;;;;;5045158;28;20490;-75
2024/03/12 07:21:07;;;;;;;194.55;182.02;;;10.50;99.90;;;;;;5041538;28;20041;-75
2024/03/12 07:23:33;;;;;;;211.60;197.25;;;10.50;99.90;;;;;;5039044;28;20041;-75
2024/03/12 07:25:59;;;;;;;201.57;187.07;;;10.50;99.90;;;;;;5040109;28;20507;-75
2024/03/12 07:28:26;;;;;;;212.13;198.10;;;10.50;99.90;;;;;;5053679;28;20036;-75
2024/03/12 07:30:53;;;;;;;239.70;223.65;;;10.50;99.90;;;;;;5053030;28;20037;-75
2024/03/12 07:33:19;;;;;;;265.15;247.05;;;10.50;99.90;;;;;;5052994;28;20037;-76
2024/03/12 07:35:46;;;;;;;257.10;239.73;;;10.50;99.90;;;;;;5042947;28;20029;-75
2024/03/12 07:38:12;;;;;;;292.48;272.95;;;10.60;99.90;;;;;;5053675;28;20041;-75
2024/03/12 07:40:41;;;;;;;268.65;250.50;;;10.70;99.90;;;;;;5052921;28;20494;-75
2024/03/12 07:43:07;;;;;;;279.70;261.23;;;10.70;99.90;;;;;;5053506;28;20041;-75
2024/03/12 07:45:35;;;;;;;268.98;250.68;;;10.80;99.90;;;;;;5052685;28;20040;-74
2024/03/12 07:48:01;;;;;;;290.52;270.88;;;10.80;99.90;;;;;;5041162;28;20030;-75
2024/03/12 07:50:30;;;;;;;233.68;218.95;;;10.90;99.90;;;;;;5038318;28;20025;-75
2024/03/12 07:52:56;;;;;;;185.43;174.02;;;10.90;99.90;;;;;;5039009;28;20040;-75
2024/03/12 07:55:22;;;;;;;182.52;170.63;;;11.00;99.90;;;;;;5038588;28;20303;-76
2024/03/12 07:57:48;;;;;;;159.80;149.43;;;11.00;99.90;;;;;;5044128;28;20021;-75
2024/03/12 08:00:16;;;;;;;193.98;181.90;;;11.00;99.90;;;;;;5044578;28;20515;-76
2024/03/12 08:02:42;;;;;;;218.75;204.75;;;11.00;99.90;;;;;;5034775;28;20045;-76
2024/03/12 08:05:08;;;;;;;190.00;177.63;;;11.00;99.90;;;;;;5042511;28;20033;-76
2024/03/12 08:07:34;;;;;;;192.32;180.13;;;11.00;99.90;;;;;;5046269;28;20029;-76
2024/03/12 08:10:00;;;;;;;224.15;210.38;;;11.10;99.90;;;;;;5039070;28;20041;-76
2024/03/12 08:12:27;;;;;;;240.65;224.90;;;11.10;99.90;;;;;;5049906;28;20060;-75
2024/03/12 08:14:53;;;;;;;262.95;245.38;;;11.10;99.90;;;;;;5052923;28;20028;-76
2024/03/12 08:17:19;;;;;;;240.02;225.00;;;11.10;99.90;;;;;;5037354;28;20033;-76
2024/03/12 08:19:47;;;;;;;239.45;224.75;;;11.20;99.90;;;;;;5050083;28;20476;-76
2024/03/12 08:22:14;;;;;;;268.30;251.63;;;11.20;99.90;;;;;;5051195;28;20056;-76
2024/03/12 08:24:40;;;;;;;272.90;255.27;;;11.20;99.90;;;;;;5045603;28;20506;-76
2024/03/12 08:27:06;;;;;;;281.45;262.58;;;11.20;99.90;;;;;;5049742;28;20045;-72
2024/03/12 08:29:33;;;;;;;258.27;242.52;;;11.30;99.90;;;;;;5040946;28;20404;-71
2024/03/12 08:31:59;;;;;;;243.05;227.90;;;11.40;99.90;;;;;;5046788;28;20033;-73
2024/03/12 08:34:26;;;;;;;246.98;230.65;;;11.50;99.90;;;;;;5050031;28;20029;-71
2024/03/12 08:36:52;;;;;;;242.90;227.63;;;11.50;99.90;;;;;;5050886;28;20496;-76
2024/03/12 08:39:18;;;;;;;211.40;198.07;;;11.50;99.90;;;;;;5045945;28;20043;-75
2024/03/12 08:41:44;;;;;;;262.02;245.93;;;11.60;99.90;;;;;;5043338;28;20034;-75
2024/03/12 08:44:14;;;;;;;190.45;178.68;;;11.60;99.90;;;;;;5032400;28;20408;-76
2024/03/12 08:46:40;;;;;;;240.88;224.70;;;11.70;99.90;;;;;;5045042;28;20117;-74
2024/03/12 08:49:10;;;;;;;331.88;309.30;;;11.70;99.90;;;;;;5037613;28;20384;-73
2024/03/12 08:51:38;;;;;;;320.60;298.95;;;11.70;99.90;;;;;;5043899;28;20041;-71
2024/03/12 08:54:05;;;;;;;280.73;262.73;;;11.70;99.90;;;;;;5050282;28;20037;-74
2024/03/12 08:56:35;;;;;;;242.23;226.68;;;11.70;99.90;;;;;;5044642;28;20492;-73
2024/03/12 08:59:01;;;;;;;276.00;257.73;;;11.70;99.90;;;;;;5040744;28;20045;-74
2024/03/12 09:01:27;;;;;;;281.98;263.27;;;11.70;99.90;;;;;;5041868;28;20491;-71
2024/03/12 09:03:54;;;;;;;273.38;255.63;;;11.70;99.90;;;;;;5037948;28;20037;-70
2024/03/12 09:06:20;;;;;;;264.02;247.18;;;11.70;99.90;;;;;;5041317;28;20040;-71
2024/03/12 09:08:49;;;;;;;260.52;243.70;;;11.80;99.90;;;;;;5040672;28;20038;-69
2024/03/12 09:11:19;;;;;;;237.15;222.02;;;11.80;99.90;;;;;;5043071;28;20053;-68
2024/03/12 09:13:46;;;;;;;198.68;185.80;;;11.80;99.90;;;;;;5033352;28;20041;-67
2024/03/12 09:16:12;;;;;;;249.55;232.40;;;11.80;99.90;;;;;;5038048;28;20071;-70
2024/03/12 09:18:42;;;;;;;279.67;261.27;;;11.80;99.90;;;;;;5038453;28;20499;-70
2024/03/12 09:21:09;;;;;;;227.00;211.55;;;11.80;99.90;;;;;;5039797;28;20041;-70
2024/03/12 09:23:36;;;;;;;251.68;234.63;;;11.80;99.90;;;;;;5051924;28;20045;-70
2024/03/12 09:26:06;;;;;;;233.20;217.23;;;11.80;99.90;;;;;;5049800;28;20037;-70
2024/03/12 09:28:33;;;;;;;256.85;238.98;;;11.90;99.90;;;;;;5040419;28;20033;-70
2024/03/12 09:30:59;;;;;;;266.80;248.38;;;11.90;99.90;;;;;;5035870;28;20514;-70
2024/03/12 09:33:25;;;;;;;241.48;225.20;;;11.90;99.90;;;;;;5053671;28;20025;-70
2024/03/12 09:35:53;;;;;;;255.27;238.57;;;11.90;99.90;;;;;;5054323;28;20403;-70
2024/03/12 09:38:20;;;;;;;265.88;249.15;;;11.90;99.90;;;;;;5046158;28;20041;-69
2024/03/12 09:40:47;;;;;;;261.35;245.02;;;11.80;99.90;;;;;;5040322;28;20518;-70
2024/03/12 09:43:16;;;;;;;249.43;234.45;;;11.90;99.90;;;;;;5055638;28;20156;-74
2024/03/12 09:45:42;;;;;;;260.13;243.82;;;11.90;99.90;;;;;;5048861;28;20060;-75
2024/03/12 09:48:08;;;;;;;232.80;217.95;;;12.00;99.90;;;;;;5055834;28;20029;-75
2024/03/12 09:50:35;;;;;;;204.88;191.80;;;12.00;99.90;;;;;;5055429;28;20025;-76
2024/03/12 09:53:02;;;;;;;199.95;187.57;;;12.00;99.90;;;;;;5053877;28;20069;-75
2024/03/12 09:55:28;;;;;;;206.55;193.95;;;12.10;99.90;;;;;;5052930;28;20045;-76
2024/03/12 09:57:54;;;;;;;209.35;196.13;;;12.10;99.90;;;;;;5053169;28;20025;-75
2024/03/12 10:00:27;;;;;;;226.32;212.00;;;12.20;99.90;;;;;;5035314;28;20045;-75
2024/03/12 10:02:55;;;;;;;257.05;241.40;;;12.30;99.90;;;;;;5048212;28;20038;-75
2024/03/12 10:05:21;;;;;;;259.13;242.50;;;12.40;99.90;;;;;;5045183;28;20045;-74
2024/03/12 10:08:06;;;;;;;335.10;313.65;;;12.50;99.90;;;;;;5054976;28;20045;-75
2024/03/12 10:10:37;;;;;;;375.98;351.00;;;12.50;99.90;;;;;;5052033;28;20037;-75
2024/03/12 10:13:04;;;;;;;307.83;287.88;;;12.60;99.90;;;;;;5035188;28;20042;-75
2024/03/12 10:15:30;;;;;;;344.95;323.15;;;12.60;99.90;;;;;;5035783;28;20534;-76
2024/03/12 10:17:59;;;;;;;351.33;328.60;;;12.70;99.90;;;;;;5049685;28;20052;-76
2024/03/12 10:20:28;;;;;;;337.02;315.60;;;12.70;99.90;;;;;;5035939;28;20614;-75
2024/03/12 10:23:09;;;;;;;421.48;392.55;;;12.80;99.90;;;;;;5055197;28;20044;-75
2024/03/12 10:25:38;;;;;;;440.38;410.17;;;12.90;99.90;;;;;;5054443;28;20048;-75
2024/03/12 10:28:07;;;;;;;443.20;413.38;;;13.00;99.90;;;;;;5055069;28;20044;-75
2024/03/12 10:30:35;;;;;;;403.77;378.02;;;13.00;99.90;;;;;;5054388;28;20041;-76
2024/03/12 10:33:15;;;;;;;489.85;455.52;;;13.00;99.90;;;;;;5054695;28;20040;-75
2024/03/12 10:35:44;;;;;;;429.02;400.40;;;13.10;99.90;;;;;;5046749;28;20405;-76
2024/03/12 10:38:26;;;;;;;489.63;455.70;;;13.10;99.90;;;;;;5054690;28;20060;-76
2024/03/12 10:40:56;;;;;;;454.17;421.73;;;13.10;99.90;;;;;;5054389;28;20060;-75
2024/03/12 10:43:25;;;;;;;416.60;389.17;;;13.10;99.90;;;;;;5054599;28;20045;-75
2024/03/12 10:45:53;;;;;;;465.75;434.35;;;13.10;99.90;;;;;;5052876;28;20025;-73
2024/03/12 10:48:21;;;;;;;427.98;397.92;;;13.10;99.90;;;;;;5053244;28;20502;-71
2024/03/12 10:50:48;;;;;;;431.55;403.38;;;13.10;99.90;;;;;;5052067;28;20037;-72
2024/03/12 10:53:14;;;;;;;425.67;397.95;;;13.20;99.90;;;;;;5054645;28;20379;-72
2024/03/12 10:55:41;;;;;;;473.63;441.65;;;13.20;99.90;;;;;;5053711;28;20061;-72
2024/03/12 10:58:08;;;;;;;453.75;424.55;;;13.30;99.90;;;;;;5052912;28;20033;-71
2024/03/12 11:00:39;;;;;;;412.10;386.45;;;13.30;99.90;;;;;;5052372;28;20033;-71
2024/03/12 11:03:08;;;;;;;383.45;359.30;;;13.40;99.90;;;;;;5052730;28;20045;-71
2024/03/12 11:05:34;;;;;;;411.52;386.02;;;13.40;99.90;;;;;;5052944;28;20033;-71
2024/03/12 11:08:01;;;;;;;395.63;371.95;;;13.50;99.90;;;;;;5054124;28;20418;-72
2024/03/12 11:10:28;;;;;;;384.90;361.92;;;13.50;99.90;;;;;;5051328;28;20495;-71
2024/03/12 11:12:55;;;;;;;378.25;355.48;;;13.50;99.90;;;;;;5033563;28;20403;-72
2024/03/12 11:15:22;;;;;;;392.55;368.40;;;13.60;99.90;;;;;;5038902;28;20471;-72
2024/03/12 11:17:50;;;;;;;381.80;359.88;;;13.60;99.90;;;;;;5052590;28;20495;-72
2024/03/12 11:20:19;;;;;;;392.25;368.88;;;13.60;99.90;;;;;;5053480;28;20040;-72
2024/03/12 11:22:45;;;;;;;414.45;389.05;;;13.70;99.90;;;;;;5052881;28;20033;-72
2024/03/12 11:25:15;;;;;;;816.17;546.92;;;13.80;99.90;;;;;;5053030;28;20483;-72
2024/03/12 11:27:43;;;;;;;437.15;410.23;;;13.90;99.90;;;;;;5052398;28;20052;-72
2024/03/12 11:30:21;;;;;;;479.73;449.15;;;13.90;99.90;;;;;;5051341;28;20045;-72
2024/03/12 11:32:50;;;;;;;437.85;410.40;;;14.00;99.90;;;;;;5033406;28;20056;-72
2024/03/12 11:35:16;;;;;;;458.90;429.38;;;14.10;99.90;;;;;;5039417;28;20029;-72
2024/03/12 11:37:46;;;;;;;1999.90;999.90;;;14.20;99.90;;;;;;5053462;28;20036;-72
2024/03/12 11:40:29;;;;;;;1999.90;999.90;;;14.30;99.90;;;;;;5053292;28;20025;-72
2024/03/12 11:42:58;;;;;;;1999.90;999.90;;;14.30;99.90;;;;;;5051852;28;20040;-72
2024/03/12 11:45:46;;;;;;;1999.90;999.90;;;14.40;99.90;;;;;;5050730;28;20387;-72
2024/03/12 11:48:20;;;;;;;1999.90;999.90;;;14.40;99.90;;;;;;5051337;28;20048;-72
2024/03/12 11:50:54;;;;;;;1999.90;999.90;;;14.40;99.90;;;;;;5053061;28;20021;-72
2024/03/12 11:53:30;;;;;;;1999.90;999.90;;;14.40;99.90;;;;;;5052245;28;20029;-72
2024/03/12 11:56:05;;;;;;;1999.90;999.90;;;14.50;99.90;;;;;;5051959;28;20033;-72
2024/03/12 11:58:40;;;;;;;1999.90;999.90;;;14.60;99.90;;;;;;5052983;28;20044;-72
2024/03/12 12:01:30;;;;;;;1999.90;999.90;;;14.60;99.90;;;;;;5052445;28;20040;-72
2024/03/12 12:04:07;;;;;;;1999.90;999.90;;;14.70;99.90;;;;;;5051733;28;20033;-71
2024/03/12 12:06:33;;;;;;;1999.90;999.90;;;14.80;99.90;;;;;;5052153;28;20029;-72
2024/03/12 12:09:10;;;;;;;1999.90;999.90;;;14.80;99.90;;;;;;5053055;28;20033;-72
2024/03/12 12:11:40;;;;;;;1999.90;999.90;;;14.80;99.90;;;;;;5040783;28;20034;-72
2024/03/12 12:14:08;;;;;;;1999.90;999.90;;;14.80;99.90;;;;;;5033010;28;20022;-72
2024/03/12 12:16:35;;;;;;;1999.90;999.90;;;14.80;99.90;;;;;;5046168;28;20049;-72
2024/03/12 12:19:05;;;;;;;1999.90;999.90;;;14.70;99.90;;;;;;5051211;28;20045;-72
2024/03/12 12:21:31;;;;;;;1999.90;999.90;;;14.70;99.90;;;;;;5051388;28;20039;-72